Kahului, HI

2:41 PM HST on March 04, 2015 (GMT -1000)
Kahului | Change Station
CLOSE
Current Station
Airport
Location: Kahului,
Elevation: 49 ft
Nearby Weather Stations
Active Advisory: Flash Flood Watch

Elev 49 ft 20.90 °N, 156.43 °W | Updated 47 minutes ago

Overcast
Overcast
71 °F
Feels Like 71 °F
N
13
Wind Variable Wind from NNW

Today
High -- | Low -- °F
--% Chance of Precip.
Yesterday
High -- | Low -- °F
Precip. -- in
6:43 AM 6:31 PM
Full, 100% visible
Pressure 30.01 in
Visibility 10.0 miles
Clouds Few 1500 ft
Scattered Clouds 5500 ft
Overcast 11000 ft
Dew Point 66 °F
Humidity 84%
Rainfall 1.82 in
Snow Depth Not available.
UV 3 out of 12
Pollen Not available.
Air Quality Not available.
Flu Activity Not available.
METAR PHOG 042354Z 33011KT 10SM FEW015 SCT055 OVC110 22/19 A3000 RMK AO2 RAE52 SLP163 P0001 60041 T02170189 10222 20211 58010 $

More Conditions Fewer Conditions

Pressure 30.01 in
Visibility 10.0 miles
Clouds Few 1500 ft
Scattered Clouds 5500 ft
Overcast 11000 ft
Dew Point 66 °F
Humidity 84%
Rainfall 1.82 in
Snow Depth Not available.
UV 3 out of 12
Pollen Not available.
Air Quality Not available.
Flu Activity Not available.
METAR PHOG 042354Z 33011KT 10SM FEW015 SCT055 OVC110 22/19 A3000 RMK AO2 RAE52 SLP163 P0001 60041 T02170189 10222 20211 58010 $

More Conditions Fewer Conditions

10-Day Weather Forecast

Almanac

Astronomy

Mar. 04, 2015 Rise Set
Actual Time
Civil Twilight
Nautical Twilight
Astronomical Twilight
Moon
Length of Visible Light
Length of Day
Tomorrow will be .
, % of the Moon is Illuminated

Today's Extremes

State Highs State Lows

Community

WunderPhotos

Upload Photos

1,802,608 photos uploaded!

WunderBlogs® & News

Nearby

Air Quality

  Air Quality AQ Index Pollutant
Not available.

Snow Depth

Station Depth Elevation

Earthquake Activity

City Distance Mag. Time & Date
Minimum magnitude displayed is 2.5.

Coastal Water Temperatures

Place Temperature

Nearby Weather Stations

Flash Flood Watch
Statement as of 3:29 AM HST on March 04, 2015

... Flash Flood Watch remains in effect until 6 am HST Thursday...

The Flash Flood Watch continues for

* Maui and The Big Island.

* Until 600 am Thursday.

* Heavy rain will bring the threat for flash flooding on Maui and
The Big Island.

* The highest threat will be on the windward sides of Maui and The
Big Island where the trade-wind flow will focus the showers. Excessive
runoff may result in rock and mudslides in steep terrain. Fast
moving waters may create life threatening situations.

Precautionary/preparedness actions...

Avoid camping or hiking near streams and low lying areas. Monitor
the latest forecasts and be prepared to take immediate action if
heavy rain occurs or flash flood warnings are issued. Remember
that it does not have to be raining where you are for flash
flooding to occur.